Time;durP1;ratioP1;P1;durP2;ratioP2;P2;SDS_P1;SDS_P2;PMS_P1;PMS_P2;Temp;Humidity;BMP_temperature;BMP_pressure;BME280_temperature;BME280_humidity;BME280_pressure;Samples;Min_cycle;Max_cycle;Signal;HPM_P1;HPM_P2
2022/08/03 00:01:24;;;;;;;10.70;2.97;;;24.20;59.60;;;;;;5095453;28;20452;-71
2022/08/03 00:03:51;;;;;;;6.27;2.33;;;24.20;59.70;;;;;;5095127;28;20464;-71
2022/08/03 00:06:18;;;;;;;8.07;2.70;;;24.10;59.80;;;;;;5095501;28;20448;-72
2022/08/03 00:08:44;;;;;;;8.40;2.57;;;24.10;59.80;;;;;;5095505;28;20448;-72
2022/08/03 00:11:11;;;;;;;9.50;2.17;;;24.10;59.90;;;;;;5095243;28;20451;-71
2022/08/03 00:13:40;;;;;;;11.87;2.50;;;24.10;60.00;;;;;;5094724;28;20484;-71
2022/08/03 00:16:06;;;;;;;6.53;2.83;;;24.10;60.10;;;;;;5095286;28;20455;-72
2022/08/03 00:18:33;;;;;;;5.47;2.40;;;24.10;60.40;;;;;;5095223;28;20455;-71
2022/08/03 00:21:00;;;;;;;10.43;3.00;;;24.10;60.50;;;;;;5095402;28;20597;-71
2022/08/03 00:23:27;;;;;;;5.77;3.20;;;24.00;60.60;;;;;;5095193;28;20472;-71
2022/08/03 00:25:54;;;;;;;7.40;2.60;;;24.00;60.80;;;;;;5094608;28;20514;-71
2022/08/03 00:28:20;;;;;;;10.87;2.37;;;24.00;61.00;;;;;;5095245;28;20558;-71
2022/08/03 00:30:49;;;;;;;9.23;3.17;;;24.00;61.20;;;;;;5094941;28;20448;-71
2022/08/03 00:33:16;;;;;;;10.63;3.00;;;23.90;61.20;;;;;;5095501;28;20464;-71
2022/08/03 00:35:43;;;;;;;4.53;2.57;;;23.90;61.40;;;;;;5096909;28;20488;-71
2022/08/03 00:38:09;;;;;;;6.50;3.13;;;23.80;61.50;;;;;;5103292;28;20521;-71
2022/08/03 00:40:36;;;;;;;7.37;2.80;;;23.80;61.70;;;;;;5115708;28;20442;-71
2022/08/03 00:43:05;;;;;;;10.50;3.13;;;23.80;61.80;;;;;;5115175;28;20456;-70
2022/08/03 00:45:34;;;;;;;9.40;2.83;;;23.80;62.10;;;;;;5115333;28;20474;-71
2022/08/03 00:48:03;;;;;;;8.63;2.67;;;23.70;62.30;;;;;;5114570;28;20433;-71
2022/08/03 00:50:33;;;;;;;4.00;2.60;;;23.70;62.50;;;;;;5115483;28;20755;-71
2022/08/03 00:53:00;;;;;;;5.53;2.30;;;23.60;62.60;;;;;;5114002;28;20988;-71
2022/08/03 00:55:28;;;;;;;4.93;2.10;;;23.60;62.70;;;;;;5113074;28;20515;-71
2022/08/03 00:57:55;;;;;;;5.07;2.40;;;23.60;62.80;;;;;;5106429;28;20515;-71
2022/08/03 01:00:24;;;;;;;8.00;2.30;;;23.70;63.10;;;;;;5102347;28;20451;-71
2022/08/03 01:02:51;;;;;;;6.63;2.20;;;23.70;63.00;;;;;;5096556;28;20464;-71
2022/08/03 01:05:20;;;;;;;6.77;2.00;;;23.70;63.10;;;;;;5094410;28;20444;-72
2022/08/03 01:08:01;;;;;;;6.30;2.53;;;23.80;63.20;;;;;;5094899;28;20455;-72
2022/08/03 01:10:37;;;;;;;8.80;2.40;;;23.80;63.00;;;;;;5094368;28;20778;-72
2022/08/03 01:13:13;;;;;;;4.17;2.50;;;23.80;62.70;;;;;;5093719;28;20991;-71
2022/08/03 01:15:46;;;;;;;8.77;2.63;;;23.90;62.40;;;;;;5094206;28;20990;-71
2022/08/03 01:18:18;;;;;;;6.03;2.73;;;23.90;62.70;;;;;;5094822;28;20441;-71
2022/08/03 01:20:52;;;;;;;8.77;2.77;;;23.90;62.60;;;;;;5094681;28;20981;-71
2022/08/03 01:23:57;;;;;;;9.97;2.90;;;23.90;62.10;;;;;;5094428;28;20497;-72
2022/08/03 01:26:46;;;;;;;9.40;2.93;;;23.90;62.40;;;;;;5073556;28;20447;-72
2022/08/03 01:29:46;;;;;;;8.10;2.87;;;23.90;62.50;;;;;;5093745;28;20432;-72
2022/08/03 01:32:19;;;;;;;7.17;2.93;;;23.80;62.50;;;;;;5069388;28;20452;-72
2022/08/03 01:34:50;;;;;;;9.53;3.20;;;23.70;62.50;;;;;;5094068;28;20495;-72
2022/08/03 01:37:25;;;;;;;8.70;3.10;;;23.70;63.00;;;;;;5097403;28;20535;-72
2022/08/03 01:39:54;;;;;;;8.53;3.10;;;23.60;63.20;;;;;;5099066;28;20447;-72
2022/08/03 01:42:23;;;;;;;11.03;3.10;;;23.50;63.40;;;;;;5097905;28;20450;-72
2022/08/03 01:44:52;;;;;;;10.50;2.80;;;23.50;63.70;;;;;;5097964;28;20460;-71
2022/08/03 01:47:22;;;;;;;9.23;3.33;;;23.50;63.90;;;;;;5097482;28;20455;-71
2022/08/03 01:49:51;;;;;;;7.70;3.40;;;23.50;64.20;;;;;;5097891;28;20455;-71
2022/08/03 01:52:19;;;;;;;7.50;2.93;;;23.40;64.30;;;;;;5097884;28;20447;-71
2022/08/03 01:54:49;;;;;;;10.77;3.20;;;23.40;64.60;;;;;;5097577;28;20487;-72
2022/08/03 01:57:18;;;;;;;9.07;3.33;;;23.30;65.00;;;;;;5097967;28;20444;-72
2022/08/03 01:59:47;;;;;;;9.67;3.80;;;23.20;65.40;;;;;;5098520;28;20451;-72
2022/08/03 02:02:16;;;;;;;9.80;3.27;;;23.10;66.00;;;;;;5097917;28;20448;-72
2022/08/03 02:04:46;;;;;;;9.10;3.27;;;23.00;66.30;;;;;;5097930;28;20845;-72
2022/08/03 02:07:15;;;;;;;9.83;3.30;;;22.90;66.70;;;;;;5098025;28;20805;-71
2022/08/03 02:09:45;;;;;;;13.77;3.90;;;22.90;66.80;;;;;;5098222;28;20451;-72
2022/08/03 02:12:13;;;;;;;6.43;3.10;;;23.00;66.90;;;;;;5098048;28;20463;-71
2022/08/03 02:14:43;;;;;;;11.87;3.87;;;23.00;67.10;;;;;;5097615;28;20494;-71
2022/08/03 02:17:10;;;;;;;12.43;3.80;;;23.00;67.10;;;;;;5097809;28;20444;-71
2022/08/03 02:19:38;;;;;;;12.57;3.83;;;23.00;67.20;;;;;;5097507;28;20451;-72
2022/08/03 02:22:10;;;;;;;12.53;3.90;;;23.00;67.40;;;;;;5097224;28;20458;-72
2022/08/03 02:24:37;;;;;;;13.77;3.83;;;23.00;67.40;;;;;;5097036;28;20991;-72
2022/08/03 02:27:10;;;;;;;12.40;3.83;;;23.00;67.50;;;;;;5097254;28;20460;-72
2022/08/03 02:29:39;;;;;;;8.23;3.60;;;23.00;67.50;;;;;;5096976;28;21034;-72
2022/08/03 02:32:07;;;;;;;17.50;4.00;;;22.90;67.50;;;;;;5097265;28;20451;-72
2022/08/03 02:34:36;;;;;;;13.10;3.73;;;22.90;67.50;;;;;;5096696;28;20585;-71
2022/08/03 02:37:06;;;;;;;7.17;3.53;;;23.00;67.60;;;;;;5097284;28;20448;-71
2022/08/03 02:39:35;;;;;;;12.10;4.40;;;22.90;67.60;;;;;;5097316;28;20428;-72
2022/08/03 02:42:02;;;;;;;21.77;4.67;;;22.90;67.80;;;;;;5096744;28;20463;-71
2022/08/03 02:44:32;;;;;;;9.63;3.60;;;22.90;68.00;;;;;;5097033;28;20468;-72
2022/08/03 02:47:03;;;;;;;11.83;4.00;;;22.90;68.30;;;;;;5096429;28;20505;-73
2022/08/03 02:49:32;;;;;;;16.93;4.60;;;22.80;68.30;;;;;;5096117;28;20909;-73
2022/08/03 02:52:00;;;;;;;10.70;4.20;;;22.80;68.50;;;;;;5096148;28;20459;-74
2022/08/03 02:54:29;;;;;;;9.13;4.37;;;22.80;68.60;;;;;;5096237;28;20474;-74
2022/08/03 02:56:58;;;;;;;15.37;4.40;;;22.70;68.60;;;;;;5096318;28;20452;-73
2022/08/03 02:59:28;;;;;;;21.40;4.77;;;22.70;68.70;;;;;;5095864;28;20940;-72
2022/08/03 03:01:55;;;;;;;12.07;4.27;;;22.70;68.90;;;;;;5096150;28;20428;-73
2022/08/03 03:04:23;;;;;;;13.97;4.90;;;22.60;69.20;;;;;;5096332;28;20471;-73
2022/08/03 03:06:51;;;;;;;21.33;5.37;;;22.60;69.60;;;;;;5096659;28;20452;-73
2022/08/03 03:09:19;;;;;;;18.80;5.67;;;22.50;69.70;;;;;;5096282;28;20448;-73
2022/08/03 03:11:50;;;;;;;26.30;5.00;;;22.50;70.10;;;;;;5096200;28;20501;-73
2022/08/03 03:14:18;;;;;;;20.27;4.70;;;22.50;70.10;;;;;;5096487;28;20479;-73
2022/08/03 03:16:47;;;;;;;21.70;6.10;;;22.50;70.20;;;;;;5095774;28;20476;-73
2022/08/03 03:19:15;;;;;;;20.57;5.67;;;22.40;70.40;;;;;;5095681;28;20444;-73
2022/08/03 03:21:43;;;;;;;17.87;5.43;;;22.40;70.50;;;;;;5095615;28;20458;-73
2022/08/03 03:24:10;;;;;;;27.87;6.07;;;22.40;70.70;;;;;;5095678;28;20834;-74
2022/08/03 03:26:38;;;;;;;30.53;6.23;;;22.40;70.90;;;;;;5095454;28;20442;-74
2022/08/03 03:29:07;;;;;;;19.60;5.27;;;22.40;71.10;;;;;;5095672;28;20444;-73
2022/08/03 03:31:35;;;;;;;26.10;5.93;;;22.30;71.10;;;;;;5095373;28;20444;-73
2022/08/03 03:34:03;;;;;;;13.83;5.70;;;22.30;71.20;;;;;;5095468;28;20460;-74
2022/08/03 03:36:29;;;;;;;27.50;5.47;;;22.30;71.30;;;;;;5095665;28;20480;-73
2022/08/03 03:38:57;;;;;;;16.03;5.63;;;22.30;71.30;;;;;;5095816;28;20443;-74
2022/08/03 03:41:24;;;;;;;15.83;4.40;;;22.30;71.50;;;;;;5096340;28;20459;-73
2022/08/03 03:43:51;;;;;;;15.27;5.67;;;22.30;71.50;;;;;;5095523;28;20476;-73
2022/08/03 03:46:20;;;;;;;16.43;5.63;;;22.30;71.60;;;;;;5095846;28;20439;-73
2022/08/03 03:48:46;;;;;;;20.40;5.70;;;22.30;71.70;;;;;;5095621;28;20439;-73
2022/08/03 03:51:14;;;;;;;19.20;5.20;;;22.30;72.00;;;;;;5095101;28;20444;-73
2022/08/03 03:53:41;;;;;;;18.50;5.50;;;22.30;72.00;;;;;;5095298;28;20468;-74
2022/08/03 03:56:08;;;;;;;23.30;6.20;;;22.20;72.00;;;;;;5095237;28;20579;-74
2022/08/03 03:58:34;;;;;;;20.77;4.83;;;22.30;72.30;;;;;;5095267;28;20444;-73
2022/08/03 04:01:01;;;;;;;18.27;5.33;;;22.30;72.50;;;;;;5095160;28;20447;-73
2022/08/03 04:03:30;;;;;;;24.07;5.17;;;22.30;72.60;;;;;;5094498;28;21010;-73
2022/08/03 04:11:29;;;;;;;16.43;5.43;;;22.20;72.80;;;;;;5094752;28;20396;-73
2022/08/03 04:13:58;;;;;;;23.00;4.97;;;22.20;72.90;;;;;;5094154;28;20480;-73
2022/08/03 04:16:29;;;;;;;16.90;5.17;;;22.20;73.10;;;;;;5094555;28;20488;-73
2022/08/03 04:19:01;;;;;;;12.13;4.93;;;22.20;73.30;;;;;;5094042;28;20452;-73
2022/08/03 04:21:30;;;;;;;16.30;4.63;;;22.20;73.50;;;;;;5094412;28;20486;-73
2022/08/03 04:24:01;;;;;;;17.70;5.10;;;22.20;73.60;;;;;;5094135;28;21097;-73
2022/08/03 04:26:32;;;;;;;17.57;5.30;;;22.20;73.80;;;;;;5094110;28;20913;-73
2022/08/03 04:29:01;;;;;;;13.30;5.10;;;22.20;74.00;;;;;;5094447;28;20435;-74
2022/08/03 04:31:29;;;;;;;15.33;5.10;;;22.10;74.10;;;;;;5094329;28;20450;-73
2022/08/03 04:33:59;;;;;;;9.67;5.07;;;22.10;74.20;;;;;;5094354;28;20843;-73
2022/08/03 04:36:27;;;;;;;16.73;4.30;;;22.10;74.30;;;;;;5094182;28;20475;-73
2022/08/03 04:39:06;;;;;;;14.50;4.33;;;22.10;74.30;;;;;;5094194;28;20444;-74
2022/08/03 04:41:38;;;;;;;12.23;4.53;;;22.20;74.60;;;;;;5094215;28;20433;-73
2022/08/03 04:44:06;;;;;;;8.40;4.30;;;22.10;74.70;;;;;;5094210;28;20558;-74
2022/08/03 04:46:36;;;;;;;10.80;5.07;;;22.10;74.90;;;;;;5094119;28;20452;-74
2022/08/03 04:49:06;;;;;;;4.90;4.00;;;22.20;75.20;;;;;;5093809;28;20905;-73
2022/08/03 04:51:36;;;;;;;11.43;4.10;;;22.20;75.10;;;;;;5094006;28;20809;-73
2022/08/03 04:54:06;;;;;;;6.93;3.67;;;22.20;74.80;;;;;;5093997;28;20472;-73
2022/08/03 04:56:33;;;;;;;5.63;3.80;;;22.30;74.70;;;;;;5093636;28;20583;-73
2022/08/03 04:59:00;;;;;;;6.10;3.87;;;22.40;74.50;;;;;;5093962;28;20456;-73
2022/08/03 05:01:26;;;;;;;5.97;3.90;;;22.40;74.60;;;;;;5093574;28;20956;-73
2022/08/03 05:03:53;;;;;;;7.57;3.57;;;22.50;74.20;;;;;;5093605;28;20836;-73
2022/08/03 05:06:21;;;;;;;8.00;3.77;;;22.50;73.70;;;;;;5093840;28;20451;-73
2022/08/03 05:08:48;;;;;;;8.90;3.40;;;22.60;74.00;;;;;;5093645;28;20459;-74
2022/08/03 05:11:15;;;;;;;5.90;3.47;;;22.60;74.40;;;;;;5093207;28;20823;-73
2022/08/03 05:13:42;;;;;;;7.17;3.87;;;22.60;74.60;;;;;;5093410;28;20472;-73
2022/08/03 05:16:09;;;;;;;5.53;3.50;;;22.60;74.70;;;;;;5093666;28;20491;-74
2022/08/03 05:18:36;;;;;;;6.87;3.87;;;22.60;75.00;;;;;;5093648;28;20447;-73
2022/08/03 05:21:02;;;;;;;4.33;3.53;;;22.70;75.00;;;;;;5093734;28;20448;-73
2022/08/03 05:23:32;;;;;;;4.43;3.40;;;22.70;74.70;;;;;;5093231;28;20975;-73
2022/08/03 05:25:59;;;;;;;4.27;3.07;;;22.80;75.40;;;;;;5093445;28;20452;-73
2022/08/03 05:28:25;;;;;;;4.30;3.47;;;22.80;74.60;;;;;;5093516;28;20456;-74
2022/08/03 05:30:52;;;;;;;3.80;3.30;;;22.80;74.10;;;;;;5093104;28;20975;-73
2022/08/03 05:33:22;;;;;;;3.83;2.83;;;22.90;73.20;;;;;;5093421;28;20468;-73
2022/08/03 05:35:49;;;;;;;8.40;3.53;;;22.90;73.10;;;;;;5093308;28;20471;-73
2022/08/03 05:38:16;;;;;;;5.77;3.40;;;23.00;73.30;;;;;;5093384;28;20454;-73
2022/08/03 05:40:44;;;;;;;8.67;4.03;;;23.00;72.80;;;;;;5093372;28;20470;-73
2022/08/03 05:43:11;;;;;;;5.33;3.27;;;23.10;72.80;;;;;;5093365;28;20472;-73
2022/08/03 05:45:38;;;;;;;8.37;3.60;;;23.10;72.60;;;;;;5093247;28;20444;-74
2022/08/03 05:48:06;;;;;;;8.43;3.77;;;23.20;72.50;;;;;;5093429;28;20458;-74
2022/08/03 05:50:33;;;;;;;12.50;4.00;;;23.20;72.60;;;;;;5093294;28;20948;-74
2022/08/03 05:52:59;;;;;;;8.60;4.10;;;23.20;73.40;;;;;;5093050;28;20472;-73
2022/08/03 05:55:26;;;;;;;11.90;3.33;;;23.30;73.20;;;;;;5093130;28;20459;-73
2022/08/03 05:57:54;;;;;;;9.27;4.20;;;23.30;72.70;;;;;;5093297;28;20452;-73
2022/08/03 06:00:21;;;;;;;11.77;3.70;;;23.40;72.10;;;;;;5093161;28;20451;-73
2022/08/03 06:02:48;;;;;;;10.33;3.50;;;23.50;71.80;;;;;;5093148;28;20819;-73
2022/08/03 06:05:15;;;;;;;10.73;3.97;;;23.50;71.60;;;;;;5093104;28;20806;-74
2022/08/03 06:07:42;;;;;;;8.73;3.70;;;23.60;71.60;;;;;;5092855;28;20447;-74
2022/08/03 06:10:09;;;;;;;8.30;3.80;;;23.70;71.40;;;;;;5093103;28;20474;-74
2022/08/03 06:12:36;;;;;;;10.93;3.03;;;23.80;71.70;;;;;;5092659;28;20955;-74
2022/08/03 06:15:05;;;;;;;13.90;3.83;;;23.80;71.20;;;;;;5092736;28;20452;-74
2022/08/03 06:17:32;;;;;;;7.93;3.90;;;23.80;70.20;;;;;;5092847;28;20487;-74
2022/08/03 06:19:58;;;;;;;11.63;3.83;;;23.90;69.70;;;;;;5092854;28;20458;-73
2022/08/03 06:22:25;;;;;;;13.40;3.63;;;24.00;69.30;;;;;;5092846;28;20940;-73
2022/08/03 06:24:52;;;;;;;10.70;4.47;;;24.00;69.30;;;;;;5096402;28;20467;-74
2022/08/03 06:27:19;;;;;;;11.47;4.50;;;24.10;70.00;;;;;;5096803;28;20435;-74
2022/08/03 06:29:46;;;;;;;10.43;3.77;;;24.20;69.50;;;;;;5096745;28;20508;-73
2022/08/03 06:32:15;;;;;;;15.13;4.17;;;24.20;70.00;;;;;;5097481;28;20770;-73
2022/08/03 06:34:42;;;;;;;15.43;3.80;;;24.30;70.10;;;;;;5096190;28;20856;-73
2022/08/03 06:37:08;;;;;;;22.47;4.33;;;24.30;69.70;;;;;;5097515;28;20487;-74
2022/08/03 06:39:35;;;;;;;14.50;4.60;;;24.40;69.30;;;;;;5096216;28;20432;-73
2022/08/03 06:42:02;;;;;;;13.33;3.77;;;24.50;68.80;;;;;;5096153;28;20448;-73
2022/08/03 06:44:29;;;;;;;11.93;3.77;;;24.60;68.20;;;;;;5096156;28;20507;-73
2022/08/03 06:46:57;;;;;;;12.30;2.93;;;24.70;67.90;;;;;;5096272;28;20448;-73
2022/08/03 06:49:25;;;;;;;10.77;3.63;;;24.70;67.60;;;;;;5096309;28;20450;-73
2022/08/03 06:51:52;;;;;;;14.97;3.60;;;24.80;67.30;;;;;;5096200;28;20450;-73
2022/08/03 06:54:21;;;;;;;22.17;4.77;;;25.00;66.70;;;;;;5096195;28;20816;-73
2022/08/03 06:56:48;;;;;;;10.33;3.13;;;25.10;66.50;;;;;;5096158;28;20468;-72
2022/08/03 06:59:15;;;;;;;9.10;2.97;;;25.20;66.00;;;;;;5095815;28;20633;-73
2022/08/03 07:01:41;;;;;;;11.40;3.50;;;25.40;65.90;;;;;;5095919;28;20456;-73
2022/08/03 07:04:08;;;;;;;12.23;3.73;;;25.50;65.60;;;;;;5096189;28;20464;-73
2022/08/03 07:06:37;;;;;;;12.20;3.20;;;25.60;64.40;;;;;;5096171;28;20858;-73
2022/08/03 07:09:05;;;;;;;12.37;3.80;;;25.80;63.90;;;;;;5096433;28;20443;-73
2022/08/03 07:11:32;;;;;;;13.97;3.73;;;25.90;63.50;;;;;;5095822;28;20799;-73
2022/08/03 07:13:59;;;;;;;10.13;2.97;;;26.00;63.70;;;;;;5095767;28;20859;-73
2022/08/03 07:16:26;;;;;;;11.80;2.80;;;26.20;62.10;;;;;;5095878;28;20487;-73
2022/08/03 07:18:52;;;;;;;15.57;3.40;;;26.40;60.80;;;;;;5095990;28;20447;-73
2022/08/03 07:21:19;;;;;;;21.03;3.80;;;26.50;61.70;;;;;;5097215;28;20444;-73
2022/08/03 07:23:47;;;;;;;12.50;3.00;;;26.60;60.60;;;;;;5096881;28;20468;-73
2022/08/03 07:26:14;;;;;;;10.93;4.03;;;26.80;60.60;;;;;;5097643;28;20444;-73
2022/08/03 07:28:41;;;;;;;14.67;3.20;;;26.90;59.70;;;;;;5098133;28;20454;-73
2022/08/03 07:31:07;;;;;;;10.63;2.67;;;27.00;59.50;;;;;;5095496;28;20820;-73
2022/08/03 07:33:34;;;;;;;16.83;3.70;;;27.10;58.90;;;;;;5095047;28;20468;-73
2022/08/03 07:36:01;;;;;;;12.97;3.87;;;27.30;58.30;;;;;;5095143;28;20953;-73
2022/08/03 07:38:28;;;;;;;9.07;2.40;;;27.40;58.00;;;;;;5095628;28;20459;-73
2022/08/03 07:40:57;;;;;;;6.10;2.37;;;27.70;57.30;;;;;;5095491;28;20497;-73
2022/08/03 07:43:24;;;;;;;6.83;2.57;;;27.90;56.50;;;;;;5095287;28;20468;-73
2022/08/03 07:45:51;;;;;;;11.40;2.30;;;28.10;56.00;;;;;;5095001;28;20506;-73
2022/08/03 07:48:18;;;;;;;9.40;2.30;;;28.40;55.90;;;;;;5095269;28;20466;-73
2022/08/03 07:50:45;;;;;;;5.73;1.73;;;28.60;55.00;;;;;;5095083;28;20444;-73
2022/08/03 07:53:12;;;;;;;12.27;1.97;;;28.60;54.60;;;;;;5095462;28;20471;-73
2022/08/03 07:55:38;;;;;;;9.00;2.30;;;28.60;53.80;;;;;;5095501;28;20455;-73
2022/08/03 07:58:11;;;;;;;7.83;1.83;;;28.80;53.80;;;;;;5095220;28;20862;-73
2022/08/03 08:00:38;;;;;;;12.47;2.27;;;28.90;54.70;;;;;;5094915;28;20951;-73
2022/08/03 08:03:05;;;;;;;5.13;1.80;;;29.00;54.60;;;;;;5095261;28;20463;-73
2022/08/03 08:05:32;;;;;;;6.60;2.20;;;29.00;53.00;;;;;;5095523;28;20445;-73
2022/08/03 08:07:59;;;;;;;6.60;2.00;;;29.10;52.90;;;;;;5095503;28;20997;-73
2022/08/03 08:10:26;;;;;;;3.03;1.97;;;29.40;52.40;;;;;;5095366;28;20429;-73
2022/08/03 08:12:54;;;;;;;5.70;1.87;;;29.60;51.40;;;;;;5094659;28;20875;-73
2022/08/03 08:15:22;;;;;;;3.90;1.53;;;29.80;51.10;;;;;;5095150;28;20480;-73
2022/08/03 08:17:52;;;;;;;5.67;2.03;;;29.90;49.80;;;;;;5094412;28;21008;-73
2022/08/03 08:20:21;;;;;;;9.93;2.30;;;30.00;49.60;;;;;;5094475;28;20481;-73
2022/08/03 08:22:48;;;;;;;7.70;2.40;;;30.00;50.00;;;;;;5094108;28;20467;-73
2022/08/03 08:25:15;;;;;;;5.70;2.13;;;29.90;48.80;;;;;;5094699;28;20452;-73
2022/08/03 08:27:43;;;;;;;5.90;2.23;;;29.90;48.50;;;;;;5095301;28;20451;-73
2022/08/03 08:30:12;;;;;;;9.93;2.47;;;30.10;49.60;;;;;;5094285;28;20451;-73
2022/08/03 08:32:40;;;;;;;5.13;2.10;;;30.20;49.60;;;;;;5094173;28;20462;-73
2022/08/03 08:35:08;;;;;;;4.37;1.70;;;30.40;50.20;;;;;;5094342;28;20459;-73
2022/08/03 08:37:35;;;;;;;7.83;1.90;;;30.50;48.20;;;;;;5094132;28;20480;-73
2022/08/03 08:40:03;;;;;;;8.80;1.97;;;30.60;48.00;;;;;;5094236;28;20444;-73
2022/08/03 08:42:31;;;;;;;8.87;2.10;;;30.70;48.60;;;;;;5094207;28;20527;-73
2022/08/03 08:44:58;;;;;;;12.10;2.27;;;30.90;46.60;;;;;;5093779;28;20447;-73
2022/08/03 08:47:29;;;;;;;7.90;2.77;;;30.90;46.90;;;;;;5093426;28;20460;-73
2022/08/03 08:49:58;;;;;;;5.53;2.10;;;31.00;46.80;;;;;;5093949;28;20436;-73
2022/08/03 08:52:27;;;;;;;9.30;2.00;;;31.00;45.90;;;;;;5093832;28;20446;-73
2022/08/03 08:54:56;;;;;;;5.20;2.40;;;31.10;46.40;;;;;;5093815;28;20571;-73
2022/08/03 08:57:27;;;;;;;8.37;2.10;;;31.20;45.80;;;;;;5093993;28;20482;-73
2022/08/03 08:59:55;;;;;;;5.90;2.00;;;31.40;45.00;;;;;;5094143;28;20436;-73
2022/08/03 09:02:23;;;;;;;6.63;1.93;;;31.70;44.10;;;;;;5094027;28;20450;-73
2022/08/03 09:04:51;;;;;;;6.80;1.90;;;31.90;44.60;;;;;;5093640;28;20482;-73
2022/08/03 09:07:19;;;;;;;3.73;1.60;;;32.10;43.40;;;;;;5093453;28;20804;-73
2022/08/03 09:09:46;;;;;;;5.63;1.80;;;32.10;44.00;;;;;;5093866;28;20443;-73
2022/08/03 09:12:13;;;;;;;6.27;2.00;;;32.30;44.00;;;;;;5093371;28;20960;-73
2022/08/03 09:14:40;;;;;;;4.30;1.80;;;32.60;41.90;;;;;;5093693;28;20467;-73
2022/08/03 09:17:08;;;;;;;10.70;2.10;;;32.60;40.70;;;;;;5093570;28;20566;-73
2022/08/03 09:19:35;;;;;;;4.83;1.90;;;32.60;41.50;;;;;;5093717;28;20501;-74
2022/08/03 09:22:11;;;;;;;4.67;1.50;;;32.70;40.30;;;;;;5093603;28;20455;-74
2022/08/03 09:24:54;;;;;;;4.20;1.90;;;32.70;41.00;;;;;;5093581;28;20527;-74
2022/08/03 09:27:21;;;;;;;6.23;2.00;;;32.70;39.90;;;;;;5094111;28;20497;-74
2022/08/03 09:29:49;;;;;;;3.93;1.60;;;32.60;40.20;;;;;;5093094;28;20959;-74
2022/08/03 09:32:19;;;;;;;7.97;2.10;;;32.70;40.80;;;;;;5093604;28;20490;-74
2022/08/03 09:34:47;;;;;;;4.47;1.50;;;32.80;40.50;;;;;;5093390;28;20562;-74
2022/08/03 09:37:15;;;;;;;7.50;1.53;;;32.90;40.00;;;;;;5093477;28;20479;-74
2022/08/03 09:39:44;;;;;;;4.23;2.10;;;33.10;41.10;;;;;;5093669;28;20467;-73
2022/08/03 09:42:12;;;;;;;4.57;1.90;;;33.20;40.40;;;;;;5093441;28;20448;-74
2022/08/03 09:44:41;;;;;;;4.50;1.90;;;33.30;38.90;;;;;;5093398;28;20463;-74
2022/08/03 09:47:09;;;;;;;15.83;2.10;;;33.50;39.20;;;;;;5093486;28;20447;-73
2022/08/03 09:49:37;;;;;;;4.13;1.80;;;33.80;38.20;;;;;;5093264;28;20501;-74
2022/08/03 09:52:13;;;;;;;5.40;2.30;;;34.00;38.20;;;;;;5092998;28;20971;-74
2022/08/03 09:54:40;;;;;;;3.57;1.73;;;34.10;37.00;;;;;;5093313;28;20470;-74
2022/08/03 09:57:19;;;;;;;8.13;1.90;;;34.20;37.40;;;;;;5094038;28;20849;-74
2022/08/03 09:59:46;;;;;;;6.30;1.63;;;34.20;36.10;;;;;;5097235;28;20506;-74
2022/08/03 10:02:22;;;;;;;5.10;1.73;;;34.40;36.70;;;;;;5097224;28;20443;-74
2022/08/03 10:04:51;;;;;;;4.90;1.90;;;34.60;36.10;;;;;;5097061;28;20471;-74
2022/08/03 10:07:19;;;;;;;4.70;1.80;;;34.90;35.80;;;;;;5096785;28;20932;-74
2022/08/03 10:09:55;;;;;;;3.37;1.40;;;35.10;34.70;;;;;;5096749;28;20955;-74
2022/08/03 10:12:23;;;;;;;1.90;1.40;;;35.20;34.40;;;;;;5096589;28;20844;-74
2022/08/03 10:14:51;;;;;;;3.53;1.93;;;35.40;34.60;;;;;;5096799;28;20475;-74
2022/08/03 10:17:18;;;;;;;4.63;1.93;;;35.50;35.60;;;;;;5096818;28;20486;-74
2022/08/03 10:19:45;;;;;;;3.73;1.53;;;35.60;33.00;;;;;;5096929;28;20447;-74
2022/08/03 10:22:14;;;;;;;3.23;1.50;;;35.90;33.30;;;;;;5096379;28;20935;-74
2022/08/03 10:24:49;;;;;;;3.90;1.80;;;36.20;31.40;;;;;;5096619;28;20469;-74
2022/08/03 10:27:18;;;;;;;1.87;1.10;;;36.30;30.40;;;;;;5096897;28;20458;-74
2022/08/03 10:29:52;;;;;;;3.47;1.63;;;36.60;30.80;;;;;;5096663;28;20534;-74
2022/08/03 10:32:27;;;;;;;1.70;1.43;;;36.90;30.60;;;;;;5096711;28;20246;-74
2022/08/03 10:35:01;;;;;;;5.00;1.80;;;37.20;29.70;;;;;;5096554;28;20227;-74
2022/08/03 10:37:31;;;;;;;3.50;1.70;;;37.50;29.70;;;;;;5096126;28;20711;-75
2022/08/03 10:40:00;;;;;;;2.05;1.58;;;37.80;30.60;;;;;;5097075;28;20190;-74
2022/08/03 10:42:30;;;;;;;6.03;1.33;;;38.10;29.30;;;;;;5096522;28;20193;-74
2022/08/03 10:45:04;;;;;;;6.03;1.30;;;38.70;27.90;;;;;;5096016;28;20585;-75
2022/08/03 10:47:32;;;;;;;6.78;1.77;;;39.20;27.10;;;;;;5096054;28;20189;-75
2022/08/03 10:50:00;;;;;;;4.72;1.33;;;39.80;26.60;;;;;;5096156;28;20201;-75
2022/08/03 10:52:27;;;;;;;2.35;1.52;;;40.20;25.90;;;;;;5097157;28;20244;-74
2022/08/03 10:57:51;;;;;;;2.78;1.75;;;40.60;24.90;;;;;;5096254;28;20211;-74
2022/08/03 11:00:21;;;;;;;3.35;1.48;;;41.00;24.70;;;;;;5096097;28;20189;-74
2022/08/03 11:03:07;;;;;;;1.80;1.40;;;41.60;23.20;;;;;;5096750;28;20194;-74
2022/08/03 11:05:38;;;;;;;1.90;1.30;;;42.20;22.90;;;;;;5095992;28;20586;-72
2022/08/03 11:08:35;;;;;;;4.65;1.38;;;42.70;22.30;;;;;;5095595;28;20189;-72
2022/08/03 11:11:22;;;;;;;4.93;1.55;;;43.10;22.00;;;;;;5095567;28;20643;-74
2022/08/03 11:13:58;;;;;;;5.85;1.80;;;43.40;21.60;;;;;;5095343;28;20240;-74
2022/08/03 11:16:28;;;;;;;4.28;1.30;;;43.60;21.00;;;;;;5095779;28;20185;-74
2022/08/03 11:19:00;;;;;;;2.55;1.63;;;43.90;21.70;;;;;;5095645;28;20229;-75
2022/08/03 11:21:58;;;;;;;8.55;1.48;;;44.20;20.60;;;;;;5096204;28;20222;-75
2022/08/03 11:25:03;;;;;;;2.53;1.52;;;44.40;19.60;;;;;;5095437;28;20259;-74
2022/08/03 11:27:32;;;;;;;6.25;1.60;;;44.20;20.70;;;;;;5095517;28;20282;-75
2022/08/03 11:30:01;;;;;;;4.15;1.45;;;44.50;21.10;;;;;;5095545;28;20296;-74
2022/08/03 11:33:00;;;;;;;3.58;1.20;;;44.80;20.70;;;;;;5095071;28;20206;-75
2022/08/03 11:35:28;;;;;;;2.00;1.30;;;45.10;19.20;;;;;;5039440;28;20205;-74
2022/08/03 11:38:07;;;;;;;2.35;1.25;;;45.50;19.50;;;;;;5095057;28;20596;-75
2022/08/03 11:40:36;;;;;;;3.50;1.48;;;46.00;17.90;;;;;;5095041;28;20646;-74
2022/08/03 11:43:03;;;;;;;4.63;1.58;;;45.80;18.20;;;;;;5095095;28;20218;-74
2022/08/03 11:45:31;;;;;;;3.15;1.65;;;45.60;18.60;;;;;;5095156;28;20197;-75
2022/08/03 11:48:02;;;;;;;2.78;1.48;;;45.40;18.80;;;;;;5095084;28;20228;-74
2022/08/03 11:50:36;;;;;;;5.63;1.58;;;45.50;19.50;;;;;;5095085;28;20185;-74
2022/08/03 11:53:03;;;;;;;1.90;1.50;;;45.20;19.60;;;;;;5094801;28;20222;-73
2022/08/03 11:55:31;;;;;;;3.55;1.73;;;45.60;19.40;;;;;;5094780;28;20661;-73
2022/08/03 11:57:59;;;;;;;1.60;1.20;;;45.80;18.00;;;;;;5094905;28;20228;-74
2022/08/03 12:00:29;;;;;;;3.38;1.50;;;46.00;18.80;;;;;;5094516;28;20233;-74
2022/08/03 12:02:59;;;;;;;4.10;1.55;;;46.20;19.20;;;;;;5094846;28;20229;-73
2022/08/03 12:05:41;;;;;;;3.03;1.35;;;46.10;19.30;;;;;;5095082;28;20258;-73
2022/08/03 12:08:09;;;;;;;5.95;1.75;;;46.20;18.70;;;;;;5094476;28;20642;-73
2022/08/03 12:10:37;;;;;;;4.22;1.80;;;46.40;18.80;;;;;;5094613;28;20206;-73
2022/08/03 12:13:07;;;;;;;3.28;1.48;;;46.40;18.30;;;;;;5094527;28;20324;-74
2022/08/03 12:15:37;;;;;;;2.30;1.48;;;46.50;18.40;;;;;;5094607;28;20301;-73
2022/08/03 12:18:15;;;;;;;4.65;1.50;;;46.10;19.10;;;;;;5094091;28;20275;-74
2022/08/03 12:20:42;;;;;;;2.20;1.23;;;46.00;19.70;;;;;;5093494;28;20193;-74
2022/08/03 12:23:09;;;;;;;1.90;1.52;;;46.20;19.70;;;;;;5094351;28;20221;-74
2022/08/03 12:25:38;;;;;;;2.67;1.40;;;46.80;19.10;;;;;;5094592;28;20201;-74
2022/08/03 12:28:15;;;;;;;3.22;1.30;;;46.90;18.10;;;;;;5094238;28;20201;-74
2022/08/03 12:30:42;;;;;;;3.15;1.85;;;46.90;18.10;;;;;;5094451;28;20185;-74
2022/08/03 12:33:20;;;;;;;3.55;1.30;;;46.80;18.30;;;;;;5094037;28;20228;-74
2022/08/03 12:36:02;;;;;;;4.38;1.40;;;47.00;18.70;;;;;;5093986;28;20564;-74
2022/08/03 12:38:29;;;;;;;8.05;1.80;;;47.00;18.60;;;;;;5094068;28;20729;-74
2022/08/03 12:41:01;;;;;;;5.88;1.17;;;47.00;17.00;;;;;;5093766;28;20669;-73
2022/08/03 12:43:28;;;;;;;4.32;1.40;;;47.20;17.40;;;;;;5093931;28;20235;-74
2022/08/03 12:46:15;;;;;;;5.38;1.38;;;47.30;16.90;;;;;;5094044;28;20205;-74
2022/08/03 12:49:04;;;;;;;2.47;1.20;;;47.40;17.20;;;;;;5094034;28;20208;-74
2022/08/03 12:51:34;;;;;;;4.85;1.60;;;47.40;17.00;;;;;;5093989;28;20290;-74
2022/08/03 12:54:02;;;;;;;3.05;1.38;;;47.50;17.20;;;;;;5094177;28;20217;-74
2022/08/03 12:56:29;;;;;;;2.13;1.55;;;47.70;17.30;;;;;;5094010;28;20197;-74
2022/08/03 12:58:56;;;;;;;3.45;1.20;;;48.10;16.90;;;;;;5093861;28;20221;-74
2022/08/03 13:01:26;;;;;;;4.32;1.63;;;48.30;16.90;;;;;;5093877;28;20205;-74
2022/08/03 13:03:54;;;;;;;4.10;1.20;;;48.90;16.80;;;;;;5093469;28;20225;-74